Time;durP1;ratioP1;P1;durP2;ratioP2;P2;SDS_P1;SDS_P2;PMS_P1;PMS_P2;Temp;Humidity;BMP_temperature;BMP_pressure;BME280_temperature;BME280_humidity;BME280_pressure;Samples;Min_cycle;Max_cycle;Signal;HPM_P1;HPM_P2
2020/12/21 00:02:14;;;;;;;78.10;29.20;;;;;;;3.79;72.54;101225.38;124430;1098;105252;-71
2020/12/21 00:04:42;;;;;;;84.87;34.90;;;;;;;3.75;73.02;101229.09;124503;1098;104587;-72
2020/12/21 00:07:10;;;;;;;59.80;26.13;;;;;;;3.76;72.08;101224.69;124455;1098;104519;-72
2020/12/21 00:09:38;;;;;;;55.10;28.60;;;;;;;3.74;72.37;101222.97;124412;1098;104640;-72
2020/12/21 00:12:06;;;;;;;53.00;27.70;;;;;;;3.76;73.00;101219.41;124417;1098;104635;-72
2020/12/21 00:14:35;;;;;;;58.53;32.03;;;;;;;3.78;72.83;101218.38;124434;1098;104605;-72
2020/12/21 00:17:03;;;;;;;43.65;23.75;;;;;;;3.76;73.19;101216.77;124409;1099;104615;-72
2020/12/21 00:19:31;;;;;;;40.33;20.87;;;;;;;3.75;72.95;101215.89;124455;1098;104618;-72
2020/12/21 00:21:59;;;;;;;38.53;22.13;;;;;;;3.78;72.87;101213.09;124464;1098;104674;-72
2020/12/21 00:24:27;;;;;;;40.50;21.77;;;;;;;3.81;73.25;101212.06;124392;1098;104602;-72
2020/12/21 00:26:55;;;;;;;36.07;20.73;;;;;;;3.84;72.94;101210.11;124428;1098;104567;-72
2020/12/21 00:29:24;;;;;;;35.17;20.67;;;;;;;3.88;72.39;101206.35;124437;1099;104605;-72
2020/12/21 00:31:52;;;;;;;39.83;22.57;;;;;;;3.89;72.80;101210.70;124459;1098;104622;-72
2020/12/21 00:34:20;;;;;;;37.87;20.83;;;;;;;3.89;73.09;101208.06;124447;1098;104955;-72
2020/12/21 00:36:51;;;;;;;41.50;22.60;;;;;;;3.85;72.73;101201.27;124431;1098;104644;-72
2020/12/21 00:39:20;;;;;;;31.63;16.97;;;;;;;3.86;72.33;101207.38;124508;1099;104522;-72
2020/12/21 00:41:48;;;;;;;31.03;15.90;;;;;;;3.83;73.24;101203.14;124525;1098;104686;-72
2020/12/21 00:44:17;;;;;;;34.03;19.17;;;;;;;3.78;72.73;101202.53;124446;1098;104583;-73
2020/12/21 00:46:45;;;;;;;35.57;19.57;;;;;;;3.74;73.19;101201.01;124410;1098;104536;-72
2020/12/21 00:49:13;;;;;;;36.03;19.07;;;;;;;3.74;73.40;101188.66;124500;1098;104647;-72
2020/12/21 00:51:41;;;;;;;39.87;22.07;;;;;;;3.72;72.50;101208.16;124426;1098;104640;-72
2020/12/21 00:54:10;;;;;;;37.33;20.03;;;;;;;3.72;72.52;101208.16;124450;1098;104592;-71
2020/12/21 00:56:38;;;;;;;31.87;16.67;;;;;;;3.70;72.63;101210.88;124421;1099;104606;-72
2020/12/21 00:59:06;;;;;;;31.75;17.95;;;;;;;3.74;72.76;101211.56;124409;1098;104516;-72
2020/12/21 01:01:34;;;;;;;32.23;18.60;;;;;;;3.75;72.53;101205.34;124460;1098;104692;-72
2020/12/21 01:04:05;;;;;;;36.97;19.63;;;;;;;3.78;72.58;101207.81;124430;1098;104567;-72
2020/12/21 01:06:35;;;;;;;38.77;21.30;;;;;;;3.79;72.51;101208.66;124469;1098;104551;-72
2020/12/21 01:09:09;;;;;;;38.37;21.23;;;;;;;3.84;73.62;101202.19;124442;1098;104577;-72
2020/12/21 01:11:38;;;;;;;38.33;20.63;;;;;;;3.89;73.36;101196.66;124430;1099;104676;-72
2020/12/21 01:14:06;;;;;;;39.27;20.23;;;;;;;3.90;72.47;101203.63;124435;1098;104513;-72
2020/12/21 01:16:34;;;;;;;32.70;17.30;;;;;;;3.90;72.93;101196.55;124428;1098;104499;-72
2020/12/21 01:19:02;;;;;;;34.37;17.03;;;;;;;3.91;72.88;101194.78;124428;1098;104622;-73
2020/12/21 01:21:31;;;;;;;35.50;19.53;;;;;;;3.89;73.00;101188.74;124448;1099;104600;-72
2020/12/21 01:24:00;;;;;;;35.30;18.37;;;;;;;3.88;72.53;101187.87;124468;1099;104656;-72
2020/12/21 01:26:30;;;;;;;36.47;19.53;;;;;;;3.87;72.87;101183.54;124407;1098;104525;-73
2020/12/21 01:28:58;;;;;;;41.13;21.03;;;;;;;3.87;73.33;101180.06;124473;1098;105709;-74
2020/12/21 01:31:27;;;;;;;41.97;21.27;;;;;;;3.87;72.44;101187.98;124441;1098;104647;-73
2020/12/21 01:33:55;;;;;;;38.00;18.97;;;;;;;3.85;72.90;101193.34;124554;1099;104541;-73
2020/12/21 01:36:23;;;;;;;36.23;18.47;;;;;;;3.84;72.93;101196.91;124414;1099;104571;-73
2020/12/21 01:38:51;;;;;;;39.65;20.55;;;;;;;3.86;72.97;101187.11;124470;1098;104606;-74
2020/12/21 01:41:19;;;;;;;37.47;19.23;;;;;;;3.89;72.58;101184.30;124450;1098;104609;-73
2020/12/21 01:43:47;;;;;;;34.97;17.83;;;;;;;3.91;72.39;101178.94;124420;1098;104945;-73
2020/12/21 01:46:16;;;;;;;35.17;17.53;;;;;;;3.91;72.58;101171.86;124409;1098;104529;-73
2020/12/21 01:48:45;;;;;;;34.63;17.83;;;;;;;3.89;72.42;101179.02;124448;1098;104551;-73
2020/12/21 01:51:22;;;;;;;32.60;16.97;;;;;;;3.88;73.02;101176.47;124469;1098;104607;-73
2020/12/21 01:53:52;;;;;;;34.77;15.83;;;;;;;3.88;72.45;101182.59;124456;1098;104593;-73
2020/12/21 01:56:21;;;;;;;33.37;15.23;;;;;;;3.84;72.75;101178.42;124440;1098;104526;-73
2020/12/21 01:58:49;;;;;;;27.37;13.73;;;;;;;3.81;73.12;101178.62;124434;1099;104608;-73
2020/12/21 02:01:19;;;;;;;31.27;15.50;;;;;;;3.80;72.52;101187.46;124430;1098;104621;-72
2020/12/21 02:03:48;;;;;;;39.10;21.17;;;;;;;3.80;72.45;101182.18;124560;1098;104500;-72
2020/12/21 02:06:17;;;;;;;35.47;16.30;;;;;;;3.80;73.22;101178.70;124425;1099;104545;-72
2020/12/21 02:08:45;;;;;;;36.30;16.20;;;;;;;3.78;72.49;101176.14;124392;1098;104496;-72
2020/12/21 02:11:13;;;;;;;36.10;16.03;;;;;;;3.75;72.89;101181.58;124408;1098;104577;-72
2020/12/21 02:13:41;;;;;;;32.43;14.60;;;;;;;3.76;72.30;101185.94;124405;1099;104632;-72
2020/12/21 02:16:14;;;;;;;32.47;15.40;;;;;;;3.77;72.51;101186.77;124471;1098;104541;-72
2020/12/21 02:18:43;;;;;;;28.97;15.37;;;;;;;3.79;72.62;101182.26;124351;1099;104503;-72
2020/12/21 02:21:11;;;;;;;37.85;20.80;;;;;;;3.77;72.61;101176.22;124503;1098;104634;-72
2020/12/21 02:23:39;;;;;;;38.70;20.10;;;;;;;3.78;72.80;101177.94;124448;1098;104959;-72
2020/12/21 02:26:08;;;;;;;42.87;21.97;;;;;;;3.79;73.34;101177.85;124418;1099;104519;-73
2020/12/21 02:28:36;;;;;;;42.70;22.10;;;;;;;3.80;72.62;101168.14;124386;1098;104605;-72
2020/12/21 02:31:04;;;;;;;39.93;19.20;;;;;;;3.81;73.04;101172.46;124418;1098;104593;-72
2020/12/21 02:33:33;;;;;;;38.63;20.13;;;;;;;3.77;72.79;101168.30;124397;1097;104520;-72
2020/12/21 02:36:01;;;;;;;37.67;19.90;;;;;;;3.76;72.53;101170.09;124394;1098;104582;-73
2020/12/21 02:38:29;;;;;;;37.43;19.93;;;;;;;3.78;72.57;101176.14;124407;1098;104720;-74
2020/12/21 02:40:57;;;;;;;40.40;19.73;;;;;;;3.77;73.37;101173.58;124442;1099;104704;-73
2020/12/21 02:43:25;;;;;;;37.90;17.67;;;;;;;3.76;72.95;101175.38;124426;1098;104579;-72
2020/12/21 02:45:53;;;;;;;33.33;16.30;;;;;;;3.80;72.79;101168.98;124406;1098;104625;-73
2020/12/21 02:48:21;;;;;;;38.20;16.90;;;;;;;3.79;72.58;101169.94;124476;1098;104727;-72
2020/12/21 02:50:50;;;;;;;39.13;14.97;;;;;;;3.76;73.39;101167.45;124463;1098;104609;-72
2020/12/21 02:53:19;;;;;;;36.67;14.50;;;;;;;3.72;73.38;101168.57;124449;1099;104526;-73
2020/12/21 02:55:47;;;;;;;34.53;15.00;;;;;;;3.72;73.40;101166.77;124518;1098;104483;-73
2020/12/21 02:58:15;;;;;;;32.60;14.47;;;;;;;3.69;72.98;101172.21;124490;1098;104570;-73
2020/12/21 03:00:43;;;;;;;37.47;16.50;;;;;;;3.71;73.48;101169.49;124483;1098;104659;-72
2020/12/21 03:03:12;;;;;;;34.27;15.97;;;;;;;3.74;73.41;101164.05;124437;1098;104957;-73
2020/12/21 03:05:41;;;;;;;33.97;16.13;;;;;;;3.77;73.35;101153.30;124442;1098;104519;-72
2020/12/21 03:08:10;;;;;;;38.75;18.20;;;;;;;3.75;73.32;101149.90;124395;1098;104539;-72
2020/12/21 03:10:39;;;;;;;36.90;16.63;;;;;;;3.75;73.45;101144.63;124513;1099;104725;-72
2020/12/21 03:13:07;;;;;;;38.93;16.87;;;;;;;3.71;72.65;101151.02;124533;1098;104724;-72
2020/12/21 03:15:36;;;;;;;35.15;16.10;;;;;;;3.68;73.46;101151.20;124418;1099;104522;-73
2020/12/21 03:18:04;;;;;;;37.83;16.77;;;;;;;3.65;73.33;101154.85;124474;1098;104612;-72
2020/12/21 03:20:32;;;;;;;39.63;18.07;;;;;;;3.66;72.44;101145.17;124502;1098;104573;-73
2020/12/21 03:23:00;;;;;;;36.90;17.37;;;;;;;3.68;73.14;101143.29;124399;1098;104585;-72
2020/12/21 03:25:28;;;;;;;42.03;17.00;;;;;;;3.62;72.63;101147.12;124408;1098;104516;-72
2020/12/21 03:27:56;;;;;;;40.35;17.30;;;;;;;3.62;73.12;101148.89;124407;1098;104519;-72
2020/12/21 03:30:25;;;;;;;37.53;15.60;;;;;;;3.66;73.14;101147.80;124462;1099;104612;-72
2020/12/21 03:32:53;;;;;;;33.77;15.67;;;;;;;3.72;73.46;101142.17;124457;1099;104605;-72
2020/12/21 03:35:21;;;;;;;42.65;20.30;;;;;;;3.70;72.62;101142.25;124413;1098;104525;-71
2020/12/21 03:37:49;;;;;;;39.60;18.93;;;;;;;3.73;73.45;101146.50;124402;1098;104516;-71
2020/12/21 03:40:17;;;;;;;38.77;18.30;;;;;;;3.73;73.48;101151.78;124475;1098;104593;-71
2020/12/21 03:42:45;;;;;;;34.65;15.40;;;;;;;3.70;73.44;101151.97;124397;1099;104567;-71
2020/12/21 03:45:13;;;;;;;37.27;15.93;;;;;;;3.70;73.50;101146.69;124294;1098;104513;-71
2020/12/21 03:47:42;;;;;;;34.75;15.85;;;;;;;3.72;73.60;101145.66;124315;1098;104516;-71
2020/12/21 03:50:10;;;;;;;32.83;14.90;;;;;;;3.75;73.45;101139.34;124551;1093;104592;-71
2020/12/21 03:52:38;;;;;;;33.33;16.20;;;;;;;3.78;72.90;101143.62;124473;1098;104510;-70
2020/12/21 03:55:06;;;;;;;37.73;17.50;;;;;;;3.79;72.53;101145.30;124304;1098;105006;-71
2020/12/21 03:57:34;;;;;;;36.10;17.30;;;;;;;3.77;73.48;101140.10;124524;1098;104961;-71
2020/12/21 04:00:06;;;;;;;33.85;15.95;;;;;;;3.74;73.45;101142.94;124429;1098;104654;-72
2020/12/21 04:02:40;;;;;;;37.43;16.03;;;;;;;3.72;72.74;101143.02;124425;1098;104532;-70
2020/12/21 04:05:09;;;;;;;31.97;13.93;;;;;;;3.73;72.96;101133.30;124266;1099;104609;-70
2020/12/21 04:07:37;;;;;;;37.13;18.63;;;;;;;3.73;72.68;101136.81;124246;1098;104545;-69
2020/12/21 04:10:07;;;;;;;34.87;15.47;;;;;;;3.78;73.48;101133.06;124320;1098;104618;-69
2020/12/21 04:12:36;;;;;;;32.80;15.07;;;;;;;3.78;72.56;101128.63;124316;1099;104673;-72
2020/12/21 04:15:05;;;;;;;33.23;14.73;;;;;;;3.75;72.99;101134.06;124441;1098;104507;-71
2020/12/21 04:17:33;;;;;;;31.90;14.00;;;;;;;3.72;73.36;101126.34;124442;1098;104532;-71
2020/12/21 04:20:01;;;;;;;31.53;14.30;;;;;;;3.68;72.97;101138.86;124568;1098;104596;-72
2020/12/21 04:22:29;;;;;;;35.87;14.73;;;;;;;3.65;73.37;101127.62;124405;1098;104951;-71
2020/12/21 04:24:59;;;;;;;29.80;13.57;;;;;;;3.62;73.41;101127.78;124321;1098;104522;-70
2020/12/21 04:27:27;;;;;;;32.40;13.63;;;;;;;3.66;72.62;101131.97;124337;1098;104529;-71
2020/12/21 04:29:55;;;;;;;27.90;12.83;;;;;;;3.67;72.75;101123.09;124427;1098;104708;-72
2020/12/21 04:32:23;;;;;;;27.10;12.70;;;;;;;3.66;72.56;101126.69;124444;1098;104586;-73
2020/12/21 04:34:51;;;;;;;27.63;12.90;;;;;;;3.63;72.52;101130.34;124422;1098;104609;-71
2020/12/21 04:37:19;;;;;;;26.80;12.03;;;;;;;3.61;72.71;101134.01;124459;1098;104609;-71
2020/12/21 04:39:47;;;;;;;31.10;13.80;;;;;;;3.60;72.80;101134.94;124531;1098;105000;-71
2020/12/21 04:42:15;;;;;;;32.67;13.27;;;;;;;3.59;72.59;101134.09;124493;1098;104583;-71
2020/12/21 04:44:44;;;;;;;31.73;13.53;;;;;;;3.61;72.71;101136.65;124456;1098;104612;-71
2020/12/21 04:47:15;;;;;;;26.95;12.70;;;;;;;3.64;72.59;101129.41;124451;1098;104628;-71
2020/12/21 04:49:44;;;;;;;34.00;16.50;;;;;;;3.67;73.10;101128.37;124489;1098;104625;-72
2020/12/21 04:52:13;;;;;;;35.80;17.97;;;;;;;3.64;72.54;101121.50;124391;1099;104616;-71
2020/12/21 04:54:42;;;;;;;47.10;24.55;;;;;;;3.66;73.31;101114.34;124390;1098;104609;-71
2020/12/21 04:57:10;;;;;;;67.60;38.60;;;;;;;3.69;73.25;101118.58;124341;1098;104542;-71
2020/12/21 04:59:38;;;;;;;94.40;50.07;;;;;;;3.65;73.27;101117.06;124448;1098;104584;-70
2020/12/21 05:02:06;;;;;;;97.00;52.80;;;;;;;3.61;72.53;101123.45;124311;1098;104526;-71
2020/12/21 05:04:35;;;;;;;197.65;109.75;;;;;;;3.65;72.59;101117.90;124326;1098;104513;-71
2020/12/21 05:07:03;;;;;;;498.93;438.83;;;;;;;3.70;72.65;101118.50;124315;1098;104516;-70
2020/12/21 05:09:31;;;;;;;557.63;495.90;;;;;;;3.74;72.56;101120.02;124364;1098;104666;-70
2020/12/21 05:12:03;;;;;;;489.70;386.80;;;;;;;3.79;73.16;101116.27;124287;1098;104615;-70
2020/12/21 05:14:33;;;;;;;294.45;189.75;;;;;;;3.83;72.65;101117.78;124291;1098;104532;-70
2020/12/21 05:17:14;;;;;;;399.13;267.53;;;;;;;3.80;72.42;101121.46;124343;1098;104576;-70
2020/12/21 05:19:43;;;;;;;244.28;117.13;;;;;;;3.78;73.30;101123.34;124465;1099;104497;-70
2020/12/21 05:22:13;;;;;;;577.20;291.30;;;;;;;3.77;72.79;101115.50;124264;1099;104516;-70
2020/12/21 05:24:42;;;;;;;983.10;683.50;;;;;;;3.78;72.68;101115.42;124418;1098;104602;-72
2020/12/21 05:27:14;;;;;;;780.00;537.57;;;;;;;3.78;72.76;101107.50;124479;1098;104606;-71
2020/12/21 05:29:42;;;;;;;586.00;385.73;;;;;;;3.78;73.40;101107.50;124481;1099;104600;-71
2020/12/21 05:32:19;;;;;;;383.85;207.40;;;;;;;3.77;72.39;101111.06;124458;1098;104564;-71
2020/12/21 05:34:48;;;;;;;413.33;272.03;;;;;;;3.74;72.31;101112.10;124283;1098;104529;-71
2020/12/21 05:37:17;;;;;;;279.00;170.03;;;;;;;3.70;73.12;101115.02;124430;1098;104589;-71
2020/12/21 05:39:53;;;;;;;98.63;48.97;;;;;;;3.66;72.73;101119.62;124477;1099;104654;-71
2020/12/21 05:42:22;;;;;;;80.17;40.50;;;;;;;3.66;72.97;101113.50;124489;1098;104516;-71
2020/12/21 05:44:57;;;;;;;87.65;56.15;;;;;;;3.68;73.19;101114.26;124674;1099;104605;-72
2020/12/21 05:47:27;;;;;;;58.13;32.40;;;;;;;3.72;73.36;101126.34;124385;1098;104573;-71
2020/12/21 05:49:58;;;;;;;60.47;34.30;;;;;;;3.72;72.70;101113.14;124505;1098;104654;-70
2020/12/21 05:52:34;;;;;;;88.70;54.30;;;;;;;3.73;73.02;101113.06;124400;1098;104606;-71
2020/12/21 05:55:09;;;;;;;64.97;35.80;;;;;;;3.73;72.65;101115.70;124351;1098;104606;-70
2020/12/21 05:57:39;;;;;;;79.43;45.40;;;;;;;3.69;73.05;101108.86;124371;1099;104583;-70
2020/12/21 06:00:09;;;;;;;48.87;26.70;;;;;;;3.65;72.36;101109.14;124382;1098;104525;-71
2020/12/21 06:02:37;;;;;;;58.63;33.37;;;;;;;3.66;73.05;101118.77;124332;1098;104647;-71
2020/12/21 06:05:07;;;;;;;43.03;21.90;;;;;;;3.66;72.52;101124.05;124324;1098;104493;-71
2020/12/21 06:07:37;;;;;;;44.10;25.65;;;;;;;3.68;72.79;101114.26;124374;1098;104522;-71
2020/12/21 06:10:07;;;;;;;46.25;26.45;;;;;;;3.72;73.08;101123.70;124376;1098;104682;-72
2020/12/21 06:12:46;;;;;;;46.13;27.03;;;;;;;3.72;72.26;101113.14;124476;1098;104681;-74
2020/12/21 06:15:18;;;;;;;45.83;27.27;;;;;;;3.73;72.29;101115.70;124485;1099;104615;-73
2020/12/21 06:17:47;;;;;;;42.70;22.67;;;;;;;3.76;72.72;101132.30;124504;1098;104615;-76
2020/12/21 06:20:15;;;;;;;38.60;21.40;;;;;;;3.74;72.70;101121.81;124477;1098;104631;-75
2020/12/21 06:22:43;;;;;;;61.67;44.90;;;;;;;3.75;72.33;101118.22;124410;1098;104965;-75
2020/12/21 06:25:22;;;;;;;52.77;31.60;;;;;;;3.76;72.59;101119.94;124440;1098;104515;-76
2020/12/21 06:27:51;;;;;;;50.70;28.33;;;;;;;3.74;72.20;101119.18;124402;1098;104541;-73
2020/12/21 06:30:31;;;;;;;54.57;32.23;;;;;;;3.79;72.36;101122.42;124465;1099;104990;-72
2020/12/21 06:33:02;;;;;;;56.30;32.10;;;;;;;3.82;72.79;101114.30;124429;1098;104613;-74
2020/12/21 06:35:40;;;;;;;45.75;26.05;;;;;;;3.79;72.56;101119.78;124502;1098;104526;-74
2020/12/21 06:38:09;;;;;;;134.07;87.37;;;;;;;3.78;72.57;101115.42;124469;1098;104652;-72
2020/12/21 06:40:37;;;;;;;109.70;66.70;;;;;;;3.74;72.86;101113.90;124557;1093;104526;-72
2020/12/21 06:43:14;;;;;;;88.53;54.33;;;;;;;3.72;72.27;101119.27;124404;1093;104579;-72
2020/12/21 06:45:43;;;;;;;90.37;56.30;;;;;;;3.74;72.59;101121.81;124551;1093;104871;-73
2020/12/21 06:48:22;;;;;;;122.00;87.13;;;;;;;3.77;72.85;101120.78;124528;1093;104606;-73
2020/12/21 06:50:50;;;;;;;72.60;43.63;;;;;;;3.73;72.61;101126.26;124468;1093;104622;-73
2020/12/21 06:53:18;;;;;;;102.77;65.57;;;;;;;3.73;72.67;101125.38;124434;1091;104605;-73
2020/12/21 06:55:46;;;;;;;60.70;36.03;;;;;;;3.74;72.36;101121.81;124494;1093;104561;-73
2020/12/21 06:58:15;;;;;;;46.73;28.47;;;;;;;3.78;73.02;101122.50;124426;1098;104615;-73
2020/12/21 07:00:44;;;;;;;42.47;22.33;;;;;;;3.81;72.41;101128.45;124437;1098;104644;-72
2020/12/21 07:03:12;;;;;;;40.97;21.83;;;;;;;3.82;72.79;101132.78;124413;1098;104688;-73
2020/12/21 07:05:40;;;;;;;43.77;26.23;;;;;;;3.81;72.37;101132.86;124403;1099;104940;-73
2020/12/21 07:08:08;;;;;;;48.63;29.63;;;;;;;3.80;72.80;101132.02;124490;1093;104507;-72
2020/12/21 07:10:36;;;;;;;52.60;29.13;;;;;;;3.79;72.19;101138.25;124454;1098;104584;-72
2020/12/21 07:13:05;;;;;;;47.07;27.20;;;;;;;3.80;72.42;101136.45;124421;1098;104578;-73
2020/12/21 07:15:33;;;;;;;53.23;30.60;;;;;;;3.80;72.88;101142.58;124438;1098;104606;-76
2020/12/21 07:18:01;;;;;;;84.75;54.80;;;;;;;3.76;72.81;101141.05;124497;1098;104522;-76
2020/12/21 07:20:29;;;;;;;56.80;33.90;;;;;;;3.78;73.02;101144.46;124577;1093;104606;-76
2020/12/21 07:22:58;;;;;;;41.87;25.17;;;;;;;3.76;72.18;101137.58;124407;1093;104495;-76
2020/12/21 07:25:26;;;;;;;47.75;29.80;;;;;;;3.76;72.96;101141.05;124432;1098;104535;-76
2020/12/21 07:27:54;;;;;;;65.35;43.20;;;;;;;3.81;72.95;101143.42;124418;1099;104686;-76
2020/12/21 07:30:27;;;;;;;60.47;37.13;;;;;;;3.82;72.23;101140.70;124442;1099;104733;-76
2020/12/21 07:32:55;;;;;;;43.55;26.45;;;;;;;3.83;72.22;101137.14;124510;1098;104545;-76
2020/12/21 07:35:23;;;;;;;43.25;26.75;;;;;;;3.84;72.28;101143.26;124446;1098;104586;-78
2020/12/21 07:37:51;;;;;;;47.07;29.00;;;;;;;3.83;72.34;101139.78;124694;1093;104609;-75
2020/12/21 07:40:22;;;;;;;47.47;29.67;;;;;;;3.82;72.04;101145.14;124526;1098;104609;-72
2020/12/21 07:42:53;;;;;;;39.67;22.23;;;;;;;3.78;72.40;101144.46;124469;1098;104615;-70
2020/12/21 07:45:24;;;;;;;37.65;20.17;;;;;;;3.78;72.83;101144.46;124522;1093;105067;-74
2020/12/21 07:47:54;;;;;;;162.22;86.70;;;;;;;3.36;72.20;101076.50;124512;1098;104503;-75
2020/12/21 07:50:22;;;;;;;367.20;219.23;;;;;;;3.73;72.11;101142.09;124480;1098;104593;-75
2020/12/21 07:52:50;;;;;;;171.30;79.37;;;;;;;3.77;73.03;101142.74;124451;1098;104539;-75
2020/12/21 07:55:18;;;;;;;328.83;152.63;;;;;;;3.82;73.11;101145.98;124456;1098;104507;-74
2020/12/21 07:57:46;;;;;;;150.47;60.10;;;;;;;3.83;72.62;101152.98;124440;1098;104545;-73
2020/12/21 08:00:14;;;;;;;923.50;470.00;;;;;;;3.83;72.58;101141.55;124475;1098;104497;-74
2020/12/21 08:02:49;;;;;;;414.53;180.67;;;;;;;3.84;72.69;101146.74;124402;1098;104541;-75
2020/12/21 08:05:21;;;;;;;548.00;281.00;;;;;;;3.86;72.25;101142.22;124370;1099;104660;-73
2020/12/21 08:07:49;;;;;;;571.70;312.45;;;;;;;3.90;72.73;101141.10;124491;1098;104507;-76
2020/12/21 08:10:20;;;;;;;346.20;144.20;;;;;;;3.95;72.68;101145.30;124496;1098;104621;-74
2020/12/21 08:12:48;;;;;;;397.70;217.20;;;;;;;3.93;72.90;101140.09;124458;1098;104606;-76
2020/12/21 08:15:21;;;;;;;370.97;198.50;;;;;;;3.94;72.46;101144.42;124446;1099;104955;-76
2020/12/21 08:17:49;;;;;;;306.70;151.03;;;;;;;3.96;72.44;101137.26;124446;1098;104525;-74
2020/12/21 08:20:20;;;;;;;475.95;275.90;;;;;;;4.01;72.63;101139.66;124432;1098;104663;-74
2020/12/21 08:22:48;;;;;;;333.40;161.47;;;;;;;4.04;72.66;101142.09;124513;1099;104493;-76
2020/12/21 08:25:17;;;;;;;232.13;104.90;;;;;;;4.08;72.23;101136.56;124344;1098;104598;-74
2020/12/21 08:27:50;;;;;;;323.85;164.35;;;;;;;4.15;72.13;101138.84;124450;1099;104609;-75
2020/12/21 08:30:20;;;;;;;338.70;182.70;;;;;;;4.19;72.10;101133.28;124472;1099;104676;-74
2020/12/21 08:32:50;;;;;;;284.00;142.10;;;;;;;4.23;72.21;101140.08;124476;1098;104614;-76
2020/12/21 08:35:24;;;;;;;158.30;74.37;;;;;;;4.25;72.38;101142.63;124468;1099;104526;-75
2020/12/21 08:37:52;;;;;;;113.00;59.60;;;;;;;4.26;72.51;101139.91;124486;1098;104607;-76
2020/12/21 08:40:20;;;;;;;88.97;45.47;;;;;;;4.26;72.25;101139.06;124498;1098;104670;-76
2020/12/21 08:42:49;;;;;;;118.53;79.63;;;;;;;4.26;72.38;101142.55;124430;1098;104568;-75
2020/12/21 08:45:21;;;;;;;114.00;77.10;;;;;;;4.30;72.47;101141.42;124464;1098;104523;-75
2020/12/21 08:47:50;;;;;;;73.53;42.63;;;;;;;4.37;72.35;101143.69;124406;1098;104581;-76
2020/12/21 08:50:19;;;;;;;61.17;35.83;;;;;;;4.40;72.25;101136.44;124549;1098;104685;-76
2020/12/21 08:52:54;;;;;;;57.37;34.80;;;;;;;4.41;72.38;101143.44;124571;1093;104545;-75
2020/12/21 08:55:23;;;;;;;52.37;31.07;;;;;;;4.42;72.33;101134.55;124537;1093;104503;-75
2020/12/21 08:57:51;;;;;;;45.55;26.50;;;;;;;4.45;72.14;101139.66;124436;1099;104900;-76
2020/12/21 09:00:19;;;;;;;47.37;27.37;;;;;;;4.51;72.46;101143.73;124483;1098;104635;-76
2020/12/21 09:02:47;;;;;;;50.40;29.27;;;;;;;4.60;72.42;101137.91;124494;1098;104494;-76
2020/12/21 09:05:15;;;;;;;49.00;28.97;;;;;;;4.69;72.39;101142.61;124495;1099;104526;-74
2020/12/21 09:07:43;;;;;;;53.15;31.65;;;;;;;4.81;72.25;101146.32;124501;1098;104570;-76
2020/12/21 09:10:11;;;;;;;47.00;28.10;;;;;;;4.87;72.22;101147.74;124538;1093;104583;-76
2020/12/21 09:12:39;;;;;;;54.57;30.70;;;;;;;4.86;72.14;101143.38;124518;1093;104516;-77
2020/12/21 09:15:07;;;;;;;37.97;22.20;;;;;;;4.84;72.03;101147.92;124456;1093;104545;-74
2020/12/21 09:17:36;;;;;;;38.47;21.33;;;;;;;4.85;72.28;101139.02;124479;1093;104516;-76
2020/12/21 09:20:05;;;;;;;41.27;23.10;;;;;;;4.90;72.29;101135.16;124519;1093;105054;-75
2020/12/21 09:22:33;;;;;;;40.73;24.70;;;;;;;4.92;72.09;101133.26;124485;1098;104490;-73
2020/12/21 09:25:01;;;;;;;40.53;22.73;;;;;;;4.95;72.30;101126.95;124468;1099;105026;-76
2020/12/21 09:27:29;;;;;;;39.63;22.50;;;;;;;4.99;71.81;101130.27;124433;1098;104595;-72
2020/12/21 09:29:57;;;;;;;48.75;28.80;;;;;;;4.99;72.08;101123.17;124456;1098;104602;-72
2020/12/21 09:32:25;;;;;;;36.73;21.43;;;;;;;4.97;71.75;101117.12;124435;1098;104565;-71
2020/12/21 09:34:53;;;;;;;34.60;20.50;;;;;;;5.01;71.88;101118.63;124425;1098;104519;-75
2020/12/21 09:37:21;;;;;;;34.30;19.60;;;;;;;5.05;71.92;101112.20;125367;1092;104545;-75
2020/12/21 09:39:49;;;;;;;39.35;24.25;;;;;;;5.04;71.58;101114.94;124624;1093;104631;-75
2020/12/21 09:42:17;;;;;;;34.73;20.60;;;;;;;5.05;71.71;101111.36;124575;1099;104530;-74
2020/12/21 09:44:47;;;;;;;38.30;22.80;;;;;;;5.10;71.74;101106.64;124552;1098;104522;-75
2020/12/21 09:47:15;;;;;;;34.30;20.37;;;;;;;5.17;71.63;101101.79;124766;1093;104523;-78
2020/12/21 09:49:43;;;;;;;30.20;16.85;;;;;;;5.14;71.66;101099.33;124852;1093;105092;-75
2020/12/21 09:52:11;;;;;;;28.07;15.90;;;;;;;5.08;71.96;101089.98;124608;1093;104577;-74
2020/12/21 09:54:40;;;;;;;29.20;17.40;;;;;;;5.10;71.64;101093.41;124722;1093;104622;-75
2020/12/21 09:57:08;;;;;;;32.53;17.87;;;;;;;5.07;71.15;101094.43;124547;1099;104503;-74
2020/12/21 09:59:36;;;;;;;34.63;18.83;;;;;;;4.95;71.26;101095.22;124633;1098;104622;-75
2020/12/21 10:02:07;;;;;;;31.53;19.60;;;;;;;4.86;71.27;101091.34;124495;1098;104533;-75
2020/12/21 10:04:36;;;;;;;32.90;19.37;;;;;;;4.79;71.78;101089.17;124975;1098;104529;-74
2020/12/21 10:07:04;;;;;;;29.07;16.77;;;;;;;4.83;72.08;101085.39;124527;1098;104615;-76
2020/12/21 10:09:32;;;;;;;33.03;18.63;;;;;;;4.90;72.15;101089.35;124524;1098;104532;-73
2020/12/21 10:12:01;;;;;;;29.70;17.87;;;;;;;4.96;71.68;101088.96;124935;1093;104531;-75
2020/12/21 10:14:29;;;;;;;31.40;18.67;;;;;;;4.96;71.04;101080.19;124547;1098;105034;-75
2020/12/21 10:16:57;;;;;;;31.87;17.47;;;;;;;4.96;71.81;101088.96;125154;1093;104532;-77
2020/12/21 10:19:25;;;;;;;32.45;19.15;;;;;;;4.96;71.53;101081.03;124697;1091;104587;-77
2020/12/21 10:21:53;;;;;;;29.40;17.50;;;;;;;4.99;71.37;101080.85;124489;1098;104587;-77
2020/12/21 10:24:21;;;;;;;28.80;17.80;;;;;;;5.01;71.71;101081.60;124610;1093;104529;-77
2020/12/21 10:26:49;;;;;;;30.13;18.57;;;;;;;5.07;71.98;101083.01;124669;1093;104529;-77
2020/12/21 10:29:17;;;;;;;32.53;19.10;;;;;;;5.16;71.36;101076.27;124493;1098;104660;-77
2020/12/21 10:31:45;;;;;;;32.20;18.47;;;;;;;5.16;71.21;101076.27;124475;1098;104525;-77
2020/12/21 10:34:14;;;;;;;34.90;20.50;;;;;;;5.10;71.60;101065.16;124525;1098;104509;-77
2020/12/21 10:36:42;;;;;;;36.10;21.30;;;;;;;5.13;71.84;101068.55;124470;1098;104506;-77
2020/12/21 10:39:11;;;;;;;30.60;17.50;;;;;;;5.16;71.54;101070.98;124507;1098;104589;-77
2020/12/21 10:41:39;;;;;;;30.13;18.47;;;;;;;5.24;71.48;101068.71;124704;1098;104520;-76
2020/12/21 10:44:07;;;;;;;31.27;18.30;;;;;;;5.29;71.50;101066.59;124521;1093;104938;-76
2020/12/21 10:46:35;;;;;;;32.75;19.05;;;;;;;5.33;71.33;101073.38;125268;1092;104496;-75
2020/12/21 10:49:03;;;;;;;34.33;19.90;;;;;;;5.35;71.44;101065.35;125009;1093;104602;-85
2020/12/21 10:51:33;;;;;;;38.50;22.57;;;;;;;5.38;71.14;101071.30;124502;1093;104578;-76
2020/12/21 10:54:02;;;;;;;136.30;85.50;;;;;;;5.41;71.62;101065.82;124432;1098;104621;-78
2020/12/21 10:56:30;;;;;;;60.63;35.13;;;;;;;5.39;70.77;101075.66;124381;1098;104539;-76
2020/12/21 10:58:59;;;;;;;42.13;25.00;;;;;;;5.29;70.93;101069.24;124700;1091;104583;-76
2020/12/21 11:01:27;;;;;;;36.80;22.97;;;;;;;5.29;71.13;101064.82;124565;1093;104608;-74
2020/12/21 11:03:55;;;;;;;41.20;24.53;;;;;;;5.31;70.97;101065.57;124978;1093;104666;-75
2020/12/21 11:06:24;;;;;;;52.67;31.60;;;;;;;5.33;71.44;101064.60;125129;1093;104493;-76
2020/12/21 11:08:54;;;;;;;42.97;23.27;;;;;;;5.28;71.54;101055.17;124533;1093;105135;-76